Time;durP1;ratioP1;P1;durP2;ratioP2;P2;SDS_P1;SDS_P2;PMS_P1;PMS_P2;Temp;Humidity;BMP_temperature;BMP_pressure;BME280_temperature;BME280_humidity;BME280_pressure;Samples;Min_cycle;Max_cycle;Signal;HPM_P1;HPM_P2
2023/09/06 00:02:07;;;;;;;8.38;4.65;;;;;;;;;;4998025;28;20076;-88
2023/09/06 00:04:33;;;;;;;7.68;4.25;;;;;;;;;;4997767;28;20022;-88
2023/09/06 00:07:00;;;;;;;7.45;4.57;;;;;;;;;;4987861;28;20058;-88
2023/09/06 00:09:26;;;;;;;8.88;4.95;;;;;;;;;;4997435;28;20148;-88
2023/09/06 00:11:52;;;;;;;5.70;4.25;;;;;;;;;;4998920;28;20034;-89
2023/09/06 00:14:19;;;;;;;7.65;4.65;;;;;;;;;;4997778;28;20129;-89
2023/09/06 00:16:48;;;;;;;7.60;4.82;;;;;;;;;;4998870;28;20056;-89
2023/09/06 00:19:15;;;;;;;7.80;4.90;;;;;;;;;;4990373;28;20109;-89
2023/09/06 00:21:42;;;;;;;8.27;4.75;;;;;;;;;;4978192;28;20070;-88
2023/09/06 00:24:11;;;;;;;6.45;4.60;;;;;;;;;;4979443;28;20282;-89
2023/09/06 00:26:37;;;;;;;7.50;4.95;;;;;;;;;;4978110;28;20331;-89
2023/09/06 00:29:06;;;;;;;6.97;4.40;;;;;;;;;;4984942;28;20097;-89
2023/09/06 00:31:32;;;;;;;7.50;4.65;;;;;;;;;;4997809;28;20067;-89
2023/09/06 00:33:58;;;;;;;7.20;4.60;;;;;;;;;;4998320;28;20484;-89
2023/09/06 00:36:28;;;;;;;5.18;4.57;;;;;;;;;;4997477;28;20039;-89
2023/09/06 00:38:56;;;;;;;10.18;4.97;;;;;;;;;;4995866;28;20033;-89
2023/09/06 00:41:22;;;;;;;10.65;5.07;;;;;;;;;;4997753;28;20401;-89
2023/09/06 00:43:48;;;;;;;9.30;5.00;;;;;;;;;;4987931;28;20037;-90
2023/09/06 00:46:15;;;;;;;11.00;5.47;;;;;;;;;;4978225;28;20031;-90
2023/09/06 00:48:41;;;;;;;9.60;5.10;;;;;;;;;;4977590;28;20023;-90
2023/09/06 00:51:07;;;;;;;11.60;4.90;;;;;;;;;;4977727;28;20053;-90
2023/09/06 00:53:34;;;;;;;8.13;4.88;;;;;;;;;;4988579;28;20030;-89
2023/09/06 00:56:02;;;;;;;12.48;5.22;;;;;;;;;;4997346;28;20023;-90
2023/09/06 00:58:29;;;;;;;8.07;4.38;;;;;;;;;;4996205;28;20030;-90
2023/09/06 01:00:56;;;;;;;6.90;4.90;;;;;;;;;;4979258;28;20034;-90
2023/09/06 01:03:22;;;;;;;8.93;4.88;;;;;;;;;;4977826;28;20070;-88
2023/09/06 01:05:50;;;;;;;8.98;4.53;;;;;;;;;;4978493;28;20064;-89
2023/09/06 01:08:20;;;;;;;8.82;4.82;;;;;;;;;;4977860;28;20077;-89
2023/09/06 01:10:46;;;;;;;5.68;4.85;;;;;;;;;;4989209;28;20041;-89
2023/09/06 01:13:12;;;;;;;10.82;5.20;;;;;;;;;;4978843;28;20046;-89
2023/09/06 01:15:41;;;;;;;8.38;5.20;;;;;;;;;;4978806;28;20035;-89
2023/09/06 01:18:08;;;;;;;7.20;4.60;;;;;;;;;;4978738;28;20106;-89
2023/09/06 01:20:45;;;;;;;8.93;5.15;;;;;;;;;;4977558;28;20409;-88
2023/09/06 01:23:30;;;;;;;10.55;4.88;;;;;;;;;;4978765;28;20057;-88
2023/09/06 01:25:56;;;;;;;7.93;4.53;;;;;;;;;;4978500;28;20054;-89
2023/09/06 01:28:27;;;;;;;7.05;4.82;;;;;;;;;;4978394;28;20509;-88
2023/09/06 01:30:54;;;;;;;10.07;5.03;;;;;;;;;;4958258;28;20078;-89
2023/09/06 01:33:20;;;;;;;8.57;5.15;;;;;;;;;;4987146;28;20030;-88
2023/09/06 01:35:46;;;;;;;11.85;5.40;;;;;;;;;;4988168;28;20348;-88
2023/09/06 01:38:14;;;;;;;10.15;4.80;;;;;;;;;;4977360;28;20432;-88
2023/09/06 01:40:40;;;;;;;9.13;5.53;;;;;;;;;;4978554;28;20476;-88
2023/09/06 01:46:19;;;;;;;9.27;5.90;;;;;;;;;;4998110;28;20077;-89
2023/09/06 01:48:46;;;;;;;7.88;5.18;;;;;;;;;;4995662;28;20036;-89
2023/09/06 01:51:15;;;;;;;5.78;4.95;;;;;;;;;;4978445;28;20035;-89
2023/09/06 01:53:41;;;;;;;7.57;5.30;;;;;;;;;;4976881;28;20356;-88
2023/09/06 01:56:07;;;;;;;7.43;5.68;;;;;;;;;;4978100;28;20053;-89
2023/09/06 01:59:06;;;;;;;7.45;5.32;;;;;;;;;;4978399;28;20027;-88
2023/09/06 02:01:32;;;;;;;7.30;5.28;;;;;;;;;;4998278;28;20038;-89
2023/09/06 02:03:59;;;;;;;8.07;5.30;;;;;;;;;;5000828;28;20033;-90
2023/09/06 02:06:25;;;;;;;6.38;4.78;;;;;;;;;;5000075;28;20491;-90
2023/09/06 02:08:52;;;;;;;7.90;5.35;;;;;;;;;;4997257;28;20340;-89
2023/09/06 02:11:19;;;;;;;8.05;4.93;;;;;;;;;;4981541;28;20031;-89
2023/09/06 02:13:45;;;;;;;7.75;4.97;;;;;;;;;;4980619;28;20058;-89
2023/09/06 02:16:12;;;;;;;7.30;4.93;;;;;;;;;;4981345;28;20030;-89
2023/09/06 02:18:38;;;;;;;7.18;5.18;;;;;;;;;;4981761;28;20380;-88
2023/09/06 02:21:04;;;;;;;10.20;5.13;;;;;;;;;;5000674;28;20397;-89
2023/09/06 02:23:30;;;;;;;7.07;4.95;;;;;;;;;;5000981;28;20022;-89
2023/09/06 02:25:57;;;;;;;6.35;5.00;;;;;;;;;;5000567;28;20023;-89
2023/09/06 02:28:23;;;;;;;7.05;5.30;;;;;;;;;;5000760;28;20026;-88
2023/09/06 02:30:49;;;;;;;8.40;5.38;;;;;;;;;;4998824;28;20088;-87
2023/09/06 02:33:16;;;;;;;7.55;4.95;;;;;;;;;;4988611;28;20403;-89
2023/09/06 02:35:42;;;;;;;8.82;5.10;;;;;;;;;;4980192;28;20082;-89
2023/09/06 02:38:12;;;;;;;7.35;5.07;;;;;;;;;;4980057;28;20023;-89
2023/09/06 02:40:41;;;;;;;10.10;4.93;;;;;;;;;;4981455;28;20057;-89
2023/09/06 02:43:07;;;;;;;7.78;4.90;;;;;;;;;;4980193;28;20026;-89
2023/09/06 02:45:37;;;;;;;15.48;5.75;;;;;;;;;;4980196;28;20054;-89
2023/09/06 02:48:16;;;;;;;6.90;5.07;;;;;;;;;;4981053;28;20365;-89
2023/09/06 02:50:44;;;;;;;5.85;4.20;;;;;;;;;;4997061;28;20038;-88
2023/09/06 02:53:31;;;;;;;6.15;4.63;;;;;;;;;;4999219;28;20105;-89
2023/09/06 02:55:59;;;;;;;7.25;5.03;;;;;;;;;;4999208;28;20030;-89
2023/09/06 02:58:25;;;;;;;5.53;4.40;;;;;;;;;;4999262;28;20029;-88
2023/09/06 03:00:55;;;;;;;6.85;5.10;;;;;;;;;;4982724;28;20027;-90
2023/09/06 03:03:22;;;;;;;6.13;4.47;;;;;;;;;;4980572;28;20421;-88
2023/09/06 03:05:48;;;;;;;5.72;4.65;;;;;;;;;;4979523;28;20026;-87
2023/09/06 03:08:14;;;;;;;6.95;4.68;;;;;;;;;;4979183;28;20118;-88
2023/09/06 03:10:41;;;;;;;8.57;4.90;;;;;;;;;;4995023;28;20022;-88
2023/09/06 03:16:13;;;;;;;5.78;4.70;;;;;;;;;;4999925;28;20037;-88
2023/09/06 03:18:40;;;;;;;7.88;4.45;;;;;;;;;;4999871;28;20048;-88
2023/09/06 03:21:07;;;;;;;8.20;4.63;;;;;;;;;;4984715;28;20034;-88
2023/09/06 03:23:33;;;;;;;5.53;4.90;;;;;;;;;;4983279;28;20034;-88
2023/09/06 03:25:59;;;;;;;7.28;4.88;;;;;;;;;;4979091;28;20038;-88
2023/09/06 03:31:29;;;;;;;5.75;4.53;;;;;;;;;;4968061;28;20122;-89
2023/09/06 03:33:56;;;;;;;5.85;5.03;;;;;;;;;;4979510;28;20045;-88
2023/09/06 03:36:24;;;;;;;6.10;4.95;;;;;;;;;;4972646;28;20043;-88
2023/09/06 03:38:50;;;;;;;8.30;5.10;;;;;;;;;;4979098;28;20027;-85
2023/09/06 03:41:17;;;;;;;8.38;4.40;;;;;;;;;;4973989;28;20034;-82
2023/09/06 03:43:44;;;;;;;6.80;4.95;;;;;;;;;;4998630;28;20077;-82
2023/09/06 03:46:13;;;;;;;9.07;4.88;;;;;;;;;;4997596;28;20348;-82
2023/09/06 03:48:39;;;;;;;9.07;5.00;;;;;;;;;;4991909;28;20472;-82
2023/09/06 03:51:05;;;;;;;6.47;4.63;;;;;;;;;;4989306;28;20074;-82
2023/09/06 03:53:31;;;;;;;11.68;5.55;;;;;;;;;;4979072;28;20031;-83
2023/09/06 03:56:00;;;;;;;8.20;4.88;;;;;;;;;;4979283;28;20053;-83
2023/09/06 03:58:29;;;;;;;5.50;4.68;;;;;;;;;;4977886;28;20026;-83
2023/09/06 04:00:55;;;;;;;9.88;5.15;;;;;;;;;;4985855;28;20034;-82
2023/09/06 04:03:22;;;;;;;10.32;5.03;;;;;;;;;;4979088;28;20109;-83
2023/09/06 04:05:50;;;;;;;6.50;5.03;;;;;;;;;;4978851;28;20031;-83
2023/09/06 04:08:20;;;;;;;7.75;5.15;;;;;;;;;;4982788;28;20030;-83
2023/09/06 04:10:46;;;;;;;12.60;5.20;;;;;;;;;;4997240;28;20038;-83
2023/09/06 04:13:13;;;;;;;6.43;4.93;;;;;;;;;;4979869;28;20058;-83
2023/09/06 04:15:40;;;;;;;14.82;5.38;;;;;;;;;;4978756;28;20033;-83
2023/09/06 04:18:09;;;;;;;15.90;5.72;;;;;;;;;;4977777;28;20045;-83
2023/09/06 04:20:36;;;;;;;10.95;5.25;;;;;;;;;;4985692;28;20022;-83
2023/09/06 04:23:06;;;;;;;10.77;6.05;;;;;;;;;;4978546;28;20034;-83
2023/09/06 04:25:33;;;;;;;10.82;5.72;;;;;;;;;;4977385;28;20126;-83
2023/09/06 04:28:36;;;;;;;8.20;4.93;;;;;;;;;;4982698;28;20105;-83
2023/09/06 04:31:04;;;;;;;9.30;5.75;;;;;;;;;;4997776;28;20031;-83
2023/09/06 04:33:30;;;;;;;10.07;5.50;;;;;;;;;;4996868;28;20030;-83
2023/09/06 04:35:57;;;;;;;9.70;5.60;;;;;;;;;;4997673;28;20093;-83
2023/09/06 04:38:23;;;;;;;9.65;5.35;;;;;;;;;;4990484;28;20042;-82
2023/09/06 04:40:51;;;;;;;8.45;5.50;;;;;;;;;;4978417;28;20074;-83
2023/09/06 04:43:18;;;;;;;8.48;5.85;;;;;;;;;;4977427;28;20022;-83
2023/09/06 04:45:44;;;;;;;6.97;5.70;;;;;;;;;;4977308;28;20042;-83
2023/09/06 04:48:12;;;;;;;11.07;6.20;;;;;;;;;;4983214;28;20022;-82
2023/09/06 04:50:38;;;;;;;8.55;5.55;;;;;;;;;;4990489;28;20025;-83
2023/09/06 04:53:05;;;;;;;8.93;5.82;;;;;;;;;;4977292;28;20031;-83
2023/09/06 04:55:35;;;;;;;8.85;5.47;;;;;;;;;;4978213;28;20027;-83
2023/09/06 04:58:38;;;;;;;8.07;5.88;;;;;;;;;;4978041;28;20058;-83
2023/09/06 05:01:06;;;;;;;9.73;5.68;;;;;;;;;;4987483;28;20364;-83
2023/09/06 05:03:33;;;;;;;8.77;5.47;;;;;;;;;;4994879;28;20424;-83
2023/09/06 05:06:00;;;;;;;8.60;6.30;;;;;;;;;;4996564;28;20034;-82
2023/09/06 05:08:26;;;;;;;8.02;5.95;;;;;;;;;;4997782;28;20072;-82
2023/09/06 05:10:52;;;;;;;10.15;6.40;;;;;;;;;;4997603;28;20033;-83
2023/09/06 05:13:18;;;;;;;10.30;6.65;;;;;;;;;;4990172;28;20029;-83
2023/09/06 05:15:44;;;;;;;12.88;6.13;;;;;;;;;;4977352;28;20081;-83
2023/09/06 05:18:10;;;;;;;11.20;6.60;;;;;;;;;;4978029;28;20037;-83
2023/09/06 05:20:37;;;;;;;7.25;6.32;;;;;;;;;;4977030;28;20030;-83
2023/09/06 05:23:11;;;;;;;9.93;6.85;;;;;;;;;;4975746;28;20050;-83
2023/09/06 05:25:38;;;;;;;14.63;10.85;;;;;;;;;;4958720;28;20027;-83
2023/09/06 05:28:22;;;;;;;16.17;10.23;;;;;;;;;;4958661;28;20028;-83
2023/09/06 05:30:49;;;;;;;13.57;9.25;;;;;;;;;;4958735;29;20441;-83
2023/09/06 05:33:15;;;;;;;11.82;8.45;;;;;;;;;;4964065;28;20037;-83
2023/09/06 05:35:41;;;;;;;10.60;8.38;;;;;;;;;;4977977;28;20071;-82
2023/09/06 05:38:09;;;;;;;10.77;8.00;;;;;;;;;;4981410;28;20041;-82
2023/09/06 05:40:35;;;;;;;13.05;9.50;;;;;;;;;;4981707;28;20022;-82
2023/09/06 05:43:02;;;;;;;11.90;7.85;;;;;;;;;;4984527;28;20033;-83
2023/09/06 05:45:29;;;;;;;12.85;9.10;;;;;;;;;;5001184;28;20041;-83
2023/09/06 05:47:55;;;;;;;12.10;8.70;;;;;;;;;;5000925;28;20026;-83
2023/09/06 05:50:21;;;;;;;13.68;8.50;;;;;;;;;;4991437;28;20015;-83
2023/09/06 05:52:47;;;;;;;9.77;8.07;;;;;;;;;;4981944;28;20027;-83
2023/09/06 05:55:13;;;;;;;13.15;8.95;;;;;;;;;;4981477;28;20026;-83
2023/09/06 05:57:39;;;;;;;12.85;9.50;;;;;;;;;;4981198;28;20019;-83
2023/09/06 06:00:21;;;;;;;10.60;9.15;;;;;;;;;;4981365;28;20035;-83
2023/09/06 06:02:47;;;;;;;;;;;;;;;;;;4980798;28;20519;-83
2023/09/06 06:05:14;;;;;;;12.90;9.70;;;;;;;;;;5000557;28;19910;-83
2023/09/06 06:07:41;;;;;;;12.23;9.43;;;;;;;;;;4999533;28;20038;-83
2023/09/06 06:10:10;;;;;;;12.82;8.80;;;;;;;;;;5000809;28;20073;-83
2023/09/06 06:12:38;;;;;;;13.73;9.73;;;;;;;;;;5000842;28;20061;-82
2023/09/06 06:15:05;;;;;;;10.65;9.18;;;;;;;;;;4981912;28;20329;-83
2023/09/06 06:17:31;;;;;;;15.23;9.65;;;;;;;;;;4981322;28;20038;-83
2023/09/06 06:19:57;;;;;;;11.82;8.77;;;;;;;;;;4981017;28;20031;-84
2023/09/06 06:22:23;;;;;;;13.00;8.88;;;;;;;;;;4980891;28;20406;-83
2023/09/06 06:24:50;;;;;;;12.52;8.93;;;;;;;;;;4995980;28;20076;-83
2023/09/06 06:27:16;;;;;;;10.43;8.25;;;;;;;;;;5000592;28;20152;-84
2023/09/06 06:29:42;;;;;;;16.42;8.60;;;;;;;;;;5000245;28;20149;-83
2023/09/06 06:32:08;;;;;;;13.75;8.50;;;;;;;;;;4999108;28;20037;-83
2023/09/06 06:34:38;;;;;;;11.45;8.20;;;;;;;;;;4984607;28;20113;-84
2023/09/06 06:37:05;;;;;;;10.50;8.77;;;;;;;;;;4980805;28;20110;-84
2023/09/06 06:39:31;;;;;;;13.30;8.57;;;;;;;;;;4983414;28;20025;-83
2023/09/06 06:41:57;;;;;;;13.75;8.48;;;;;;;;;;5000205;28;20090;-82
2023/09/06 06:44:24;;;;;;;9.80;7.88;;;;;;;;;;4987322;28;20027;-83
2023/09/06 06:46:50;;;;;;;12.15;8.68;;;;;;;;;;4980099;28;20042;-83
2023/09/06 06:49:16;;;;;;;15.13;8.05;;;;;;;;;;4980573;28;20023;-83
2023/09/06 06:51:42;;;;;;;13.05;7.57;;;;;;;;;;4980340;28;20031;-83
2023/09/06 06:54:14;;;;;;;11.85;8.25;;;;;;;;;;4980286;28;20042;-83
2023/09/06 06:56:40;;;;;;;10.32;7.85;;;;;;;;;;4980210;28;20062;-83
2023/09/06 06:59:07;;;;;;;11.30;7.75;;;;;;;;;;4979035;28;20073;-83
2023/09/06 07:01:33;;;;;;;9.95;7.97;;;;;;;;;;4978953;28;20023;-83
2023/09/06 07:04:00;;;;;;;9.60;7.88;;;;;;;;;;4980164;28;20436;-84
2023/09/06 07:06:27;;;;;;;11.75;7.65;;;;;;;;;;4980353;28;20035;-84
2023/09/06 07:08:53;;;;;;;13.00;7.60;;;;;;;;;;4980127;28;20058;-84
2023/09/06 07:11:20;;;;;;;8.10;7.07;;;;;;;;;;4979332;28;20110;-84
2023/09/06 07:14:04;;;;;;;11.10;7.80;;;;;;;;;;4981825;28;20034;-87
2023/09/06 07:16:33;;;;;;;12.40;6.65;;;;;;;;;;4978245;28;20325;-86
2023/09/06 07:18:59;;;;;;;10.13;7.22;;;;;;;;;;4980362;28;20042;-86
2023/09/06 07:21:26;;;;;;;8.07;7.10;;;;;;;;;;4980106;28;20109;-86
2023/09/06 07:23:52;;;;;;;9.95;7.70;;;;;;;;;;4986824;28;20415;-86
2023/09/06 07:26:18;;;;;;;11.30;6.90;;;;;;;;;;4985258;28;20022;-81
2023/09/06 07:28:45;;;;;;;9.13;6.85;;;;;;;;;;4989991;28;20030;-81
2023/09/06 07:31:11;;;;;;;9.00;6.72;;;;;;;;;;4998961;28;20034;-81
2023/09/06 07:33:38;;;;;;;9.35;6.47;;;;;;;;;;4997674;28;20074;-81
2023/09/06 07:36:04;;;;;;;8.75;6.20;;;;;;;;;;4993182;28;20201;-81
2023/09/06 07:38:31;;;;;;;14.25;6.90;;;;;;;;;;4979501;28;20034;-81
2023/09/06 07:40:57;;;;;;;11.45;6.90;;;;;;;;;;4958933;29;20054;-80
2023/09/06 07:43:25;;;;;;;8.48;6.30;;;;;;;;;;4997956;28;20037;-80
2023/09/06 07:45:52;;;;;;;9.02;6.18;;;;;;;;;;4997561;28;20031;-80
2023/09/06 07:48:18;;;;;;;7.78;6.07;;;;;;;;;;4998825;28;20030;-80
2023/09/06 07:50:44;;;;;;;5.70;4.82;;;;;;;;;;4998476;28;20030;-80
2023/09/06 07:53:10;;;;;;;10.80;5.53;;;;;;;;;;4981947;28;20023;-80
2023/09/06 07:55:37;;;;;;;10.20;5.53;;;;;;;;;;4989759;28;20142;-80
2023/09/06 07:58:03;;;;;;;10.43;6.05;;;;;;;;;;4983974;28;20027;-80
2023/09/06 08:00:31;;;;;;;8.35;5.20;;;;;;;;;;4991734;28;20435;-81
2023/09/06 08:02:57;;;;;;;9.15;4.88;;;;;;;;;;4998525;28;20325;-81
2023/09/06 08:05:24;;;;;;;8.38;5.30;;;;;;;;;;4997514;28;20424;-80
2023/09/06 08:07:50;;;;;;;7.88;5.18;;;;;;;;;;4997150;28;20310;-82
2023/09/06 08:10:16;;;;;;;7.63;4.68;;;;;;;;;;4998368;28;20041;-81
2023/09/06 08:12:42;;;;;;;7.97;4.80;;;;;;;;;;4996407;28;20329;-80
2023/09/06 08:15:08;;;;;;;6.32;4.93;;;;;;;;;;4995778;28;20409;-81
2023/09/06 08:17:34;;;;;;;7.45;5.40;;;;;;;;;;4997972;28;20030;-81
2023/09/06 08:20:00;;;;;;;7.55;5.10;;;;;;;;;;4997580;28;20026;-81
2023/09/06 08:22:26;;;;;;;10.38;5.10;;;;;;;;;;4987471;28;20073;-81
2023/09/06 08:24:52;;;;;;;9.38;5.05;;;;;;;;;;4978575;28;20026;-81
2023/09/06 08:27:18;;;;;;;9.27;4.88;;;;;;;;;;4977443;28;20031;-81
2023/09/06 08:29:44;;;;;;;5.55;4.40;;;;;;;;;;4977636;28;20070;-81
2023/09/06 08:32:10;;;;;;;6.30;4.90;;;;;;;;;;4979341;28;20030;-81
2023/09/06 08:34:36;;;;;;;6.65;4.93;;;;;;;;;;4983463;28;20049;-81
2023/09/06 08:37:02;;;;;;;6.57;4.50;;;;;;;;;;4996810;28;20038;-81
2023/09/06 08:39:29;;;;;;;11.52;5.03;;;;;;;;;;4981531;28;20038;-81
2023/09/06 08:41:56;;;;;;;8.93;4.78;;;;;;;;;;4977223;28;20030;-81
2023/09/06 08:44:24;;;;;;;8.15;4.70;;;;;;;;;;4958907;28;20039;-81
2023/09/06 08:46:52;;;;;;;10.38;4.88;;;;;;;;;;4959236;28;20039;-81
2023/09/06 08:49:18;;;;;;;9.10;4.20;;;;;;;;;;4970793;28;20043;-81
2023/09/06 08:51:44;;;;;;;9.50;4.40;;;;;;;;;;4978279;28;20045;-81
2023/09/06 08:54:12;;;;;;;8.20;4.45;;;;;;;;;;4994657;28;20412;-81
2023/09/06 08:56:39;;;;;;;6.13;4.20;;;;;;;;;;4980279;28;20433;-80
2023/09/06 08:59:05;;;;;;;7.05;4.43;;;;;;;;;;4977949;28;20027;-81
2023/09/06 09:01:32;;;;;;;10.07;4.82;;;;;;;;;;4978176;28;20023;-81
2023/09/06 09:03:58;;;;;;;8.75;4.93;;;;;;;;;;4988455;28;20033;-81
2023/09/06 09:06:25;;;;;;;7.80;4.85;;;;;;;;;;4978043;28;20027;-81
2023/09/06 09:08:51;;;;;;;6.50;4.95;;;;;;;;;;4982840;28;20110;-81
2023/09/06 09:11:20;;;;;;;7.63;4.65;;;;;;;;;;4996749;28;20101;-80
2023/09/06 09:13:47;;;;;;;6.15;4.45;;;;;;;;;;4997709;28;20038;-90
2023/09/06 09:16:14;;;;;;;5.20;4.22;;;;;;;;;;4990045;28;20031;-82
2023/09/06 09:18:41;;;;;;;9.23;4.88;;;;;;;;;;4980778;28;20034;-82
2023/09/06 09:21:09;;;;;;;8.00;5.32;;;;;;;;;;4981948;28;20062;-82
2023/09/06 09:23:53;;;;;;;8.35;4.88;;;;;;;;;;4981864;28;20042;-81
2023/09/06 09:26:19;;;;;;;9.38;4.60;;;;;;;;;;4981916;28;20034;-82
2023/09/06 09:28:45;;;;;;;5.88;4.25;;;;;;;;;;4981891;28;20053;-82
2023/09/06 09:31:16;;;;;;;8.65;4.13;;;;;;;;;;4981835;28;20061;-82
2023/09/06 09:33:46;;;;;;;16.60;5.00;;;;;;;;;;4980937;28;20130;-82
2023/09/06 09:36:16;;;;;;;8.75;3.80;;;;;;;;;;4980645;28;20066;-82
2023/09/06 09:38:47;;;;;;;9.18;4.20;;;;;;;;;;4981631;28;20065;-83
2023/09/06 09:41:14;;;;;;;6.70;3.63;;;;;;;;;;4981397;28;20029;-82
2023/09/06 09:43:40;;;;;;;11.75;3.42;;;;;;;;;;4984402;28;20027;-81
2023/09/06 09:46:08;;;;;;;7.07;2.83;;;;;;;;;;4992551;28;20034;-81
2023/09/06 09:48:34;;;;;;;5.88;3.58;;;;;;;;;;4985643;28;20074;-82
2023/09/06 09:51:01;;;;;;;7.72;3.55;;;;;;;;;;4981423;28;20043;-82
2023/09/06 09:53:29;;;;;;;7.15;3.67;;;;;;;;;;4981162;28;20049;-81
2023/09/06 09:55:56;;;;;;;6.88;3.08;;;;;;;;;;4998584;28;20057;-82
2023/09/06 09:58:22;;;;;;;6.93;3.92;;;;;;;;;;4999256;28;20069;-82
2023/09/06 10:00:52;;;;;;;6.22;3.50;;;;;;;;;;4991563;28;20050;-82
2023/09/06 10:03:18;;;;;;;7.53;3.00;;;;;;;;;;4986290;28;20459;-82
2023/09/06 10:05:45;;;;;;;4.70;3.13;;;;;;;;;;4980903;28;20046;-82
2023/09/06 10:08:12;;;;;;;5.18;3.33;;;;;;;;;;4982069;28;20118;-82
2023/09/06 10:10:39;;;;;;;5.32;3.15;;;;;;;;;;5000412;28;20018;-81
2023/09/06 10:13:07;;;;;;;7.25;3.50;;;;;;;;;;5000315;28;20301;-81
2023/09/06 10:15:34;;;;;;;6.18;3.40;;;;;;;;;;4982833;28;20037;-81
2023/09/06 10:18:01;;;;;;;6.70;3.38;;;;;;;;;;4980013;28;20325;-82
2023/09/06 10:20:30;;;;;;;5.28;3.50;;;;;;;;;;4980747;28;20433;-82
2023/09/06 10:22:57;;;;;;;7.03;3.33;;;;;;;;;;4979881;28;20027;-81
2023/09/06 10:25:25;;;;;;;5.97;3.10;;;;;;;;;;4982605;28;20026;-82
2023/09/06 10:27:55;;;;;;;13.40;3.65;;;;;;;;;;4988068;28;20038;-81
2023/09/06 10:30:43;;;;;;;4.93;3.20;;;;;;;;;;4961336;28;20303;-82
2023/09/06 10:33:09;;;;;;;5.82;3.10;;;;;;;;;;4980662;28;20086;-82
2023/09/06 10:35:41;;;;;;;5.38;3.38;;;;;;;;;;4988723;28;20407;-92
2023/09/06 10:38:14;;;;;;;7.53;3.30;;;;;;;;;;4998974;28;20336;-91
2023/09/06 10:40:50;;;;;;;5.10;3.35;;;;;;;;;;4974082;28;20317;-91
2023/09/06 10:43:16;;;;;;;5.85;3.33;;;;;;;;;;4988701;28;20030;-92
2023/09/06 10:46:02;;;;;;;5.93;3.00;;;;;;;;;;4981170;28;20027;-92
2023/09/06 10:48:29;;;;;;;5.60;3.30;;;;;;;;;;4978303;28;20376;-90
2023/09/06 10:51:06;;;;;;;6.68;3.58;;;;;;;;;;4984613;28;20166;-92
2023/09/06 10:53:37;;;;;;;6.15;3.90;;;;;;;;;;4979325;28;20039;-92
2023/09/06 10:56:05;;;;;;;7.75;3.75;;;;;;;;;;4963028;28;20077;-87
2023/09/06 10:58:33;;;;;;;5.10;3.47;;;;;;;;;;4962628;28;20125;-87
2023/09/06 11:01:18;;;;;;;4.72;3.50;;;;;;;;;;4962975;28;20329;-88
2023/09/06 11:03:54;;;;;;;6.72;3.10;;;;;;;;;;4979828;28;20027;-88
2023/09/06 11:06:24;;;;;;;5.45;3.22;;;;;;;;;;4979038;28;20046;-89
2023/09/06 11:08:50;;;;;;;6.55;3.30;;;;;;;;;;4979119;28;20494;-93
2023/09/06 11:11:16;;;;;;;6.75;3.40;;;;;;;;;;4979036;28;20030;-89
2023/09/06 11:13:44;;;;;;;6.40;3.58;;;;;;;;;;4964672;28;20049;-88
2023/09/06 11:16:15;;;;;;;9.50;3.55;;;;;;;;;;4981755;28;20121;-88
2023/09/06 11:18:45;;;;;;;6.63;3.90;;;;;;;;;;4978736;28;20062;-89
2023/09/06 11:21:11;;;;;;;6.82;3.30;;;;;;;;;;4962508;28;20114;-88
2023/09/06 11:23:43;;;;;;;4.20;3.20;;;;;;;;;;4962590;28;20030;-88
2023/09/06 11:26:10;;;;;;;8.38;3.83;;;;;;;;;;4989312;28;20044;-88
2023/09/06 11:31:39;;;;;;;5.32;3.47;;;;;;;;;;4980204;28;20085;-89
2023/09/06 11:34:08;;;;;;;5.32;3.08;;;;;;;;;;4986761;28;20050;-86
2023/09/06 11:36:36;;;;;;;3.85;3.22;;;;;;;;;;4994964;28;20029;-89
2023/09/06 11:39:18;;;;;;;4.43;3.05;;;;;;;;;;4989832;28;20035;-89
2023/09/06 11:41:45;;;;;;;3.53;3.22;;;;;;;;;;4981176;28;20374;-88
2023/09/06 11:44:14;;;;;;;4.97;2.90;;;;;;;;;;4979671;28;20026;-88
2023/09/06 11:46:43;;;;;;;5.05;3.40;;;;;;;;;;4979696;28;20113;-89
2023/09/06 11:49:09;;;;;;;6.40;3.28;;;;;;;;;;4979472;28;20023;-88
2023/09/06 11:51:36;;;;;;;5.68;3.50;;;;;;;;;;4979962;28;20026;-89
2023/09/06 11:54:09;;;;;;;4.45;3.22;;;;;;;;;;4979771;28;20023;-88
2023/09/06 11:56:39;;;;;;;7.00;3.35;;;;;;;;;;4978658;28;20509;-88
2023/09/06 11:59:12;;;;;;;5.38;3.28;;;;;;;;;;4978849;28;20039;-87
2023/09/06 12:01:40;;;;;;;8.43;3.17;;;;;;;;;;4979398;28;20114;-88
2023/09/06 12:04:10;;;;;;;6.28;3.42;;;;;;;;;;4978325;28;20086;-89
2023/09/06 12:06:39;;;;;;;4.95;3.30;;;;;;;;;;4978705;28;20035;-87
2023/09/06 12:09:12;;;;;;;7.07;3.00;;;;;;;;;;4978548;28;20034;-86
2023/09/06 12:11:38;;;;;;;7.32;3.20;;;;;;;;;;4979263;28;20428;-86
2023/09/06 12:14:04;;;;;;;3.47;3.17;;;;;;;;;;4979033;28;20027;-90
2023/09/06 12:16:31;;;;;;;7.55;3.40;;;;;;;;;;4979209;28;20131;-82
2023/09/06 12:18:57;;;;;;;5.43;3.20;;;;;;;;;;4977634;28;20031;-82
2023/09/06 12:21:23;;;;;;;4.97;3.13;;;;;;;;;;4978383;28;20035;-82
2023/09/06 12:23:49;;;;;;;5.55;3.00;;;;;;;;;;4976545;28;20409;-82
2023/09/06 12:26:17;;;;;;;6.30;3.08;;;;;;;;;;4981388;28;20038;-95
2023/09/06 12:28:43;;;;;;;4.95;3.10;;;;;;;;;;4983672;28;20140;-81
2023/09/06 12:31:11;;;;;;;5.70;3.42;;;;;;;;;;4995386;28;20041;-82
2023/09/06 12:33:37;;;;;;;6.18;3.25;;;;;;;;;;4978051;28;20054;-82
2023/09/06 12:36:05;;;;;;;4.10;2.88;;;;;;;;;;4990606;28;20050;-82
2023/09/06 12:38:32;;;;;;;5.20;3.20;;;;;;;;;;4980484;28;20333;-82
2023/09/06 12:40:58;;;;;;;4.50;2.70;;;;;;;;;;4981310;28;20073;-82
2023/09/06 12:43:26;;;;;;;10.02;4.88;;;;;;;;;;4977387;28;20015;-82
2023/09/06 12:46:11;;;;;;;6.25;4.03;;;;;;;;;;4977753;28;20313;-82
2023/09/06 12:48:38;;;;;;;5.95;4.00;;;;;;;;;;4980362;28;20035;-82
2023/09/06 12:51:06;;;;;;;4.35;3.45;;;;;;;;;;4978424;28;20042;-82
2023/09/06 12:53:32;;;;;;;4.80;2.85;;;;;;;;;;4988946;28;20435;-82
2023/09/06 12:55:58;;;;;;;4.28;3.15;;;;;;;;;;4985035;28;20027;-82
2023/09/06 12:58:24;;;;;;;3.42;2.92;;;;;;;;;;4960826;28;20425;-82
2023/09/06 13:00:51;;;;;;;4.55;2.92;;;;;;;;;;4978227;28;20034;-81
2023/09/06 13:03:17;;;;;;;4.53;2.80;;;;;;;;;;4995168;28;20030;-82
2023/09/06 13:05:45;;;;;;;7.75;3.00;;;;;;;;;;4978295;28;20046;-82
2023/09/06 13:08:11;;;;;;;5.18;2.75;;;;;;;;;;4986655;28;20030;-82
2023/09/06 13:10:39;;;;;;;5.38;3.15;;;;;;;;;;4966271;28;20054;-82
2023/09/06 13:13:05;;;;;;;4.22;3.33;;;;;;;;;;4971766;28;20027;-82
2023/09/06 13:15:31;;;;;;;4.50;2.88;;;;;;;;;;4969822;28;20030;-81
2023/09/06 13:17:57;;;;;;;6.13;3.45;;;;;;;;;;4988578;28;20026;-81
2023/09/06 13:20:24;;;;;;;5.45;2.88;;;;;;;;;;4988698;28;20069;-82
2023/09/06 13:22:50;;;;;;;10.95;3.00;;;;;;;;;;4976316;28;20143;-82
2023/09/06 13:25:16;;;;;;;6.55;3.50;;;;;;;;;;4979944;28;20109;-82
2023/09/06 13:27:43;;;;;;;4.82;3.33;;;;;;;;;;4976360;28;20019;-82
2023/09/06 13:30:41;;;;;;;3.22;2.90;;;;;;;;;;4984197;28;20413;-82
2023/09/06 13:33:07;;;;;;;4.40;3.20;;;;;;;;;;4967306;28;20039;-82
2023/09/06 13:35:33;;;;;;;3.20;2.80;;;;;;;;;;4968159;28;20058;-82
2023/09/06 13:37:59;;;;;;;4.40;2.60;;;;;;;;;;4980046;28;20038;-81
2023/09/06 13:40:26;;;;;;;6.20;2.90;;;;;;;;;;4977472;28;20027;-81
2023/09/06 13:42:52;;;;;;;4.50;3.08;;;;;;;;;;4978041;28;20019;-81
2023/09/06 13:45:20;;;;;;;5.65;3.50;;;;;;;;;;4976972;28;20031;-82
2023/09/06 13:47:49;;;;;;;4.93;2.83;;;;;;;;;;4988838;28;20031;-82
2023/09/06 13:50:15;;;;;;;4.45;2.88;;;;;;;;;;4976175;28;20035;-82
2023/09/06 13:52:41;;;;;;;5.50;3.00;;;;;;;;;;4977631;28;20029;-82
2023/09/06 13:55:10;;;;;;;3.30;2.60;;;;;;;;;;4978036;28;20033;-82
2023/09/06 13:57:36;;;;;;;4.22;2.85;;;;;;;;;;4979401;28;20063;-82
2023/09/06 14:00:05;;;;;;;3.65;2.95;;;;;;;;;;4974594;28;20034;-82
2023/09/06 14:02:34;;;;;;;2.95;2.67;;;;;;;;;;4980080;28;20373;-82
2023/09/06 14:05:00;;;;;;;4.55;2.83;;;;;;;;;;4983148;28;20046;-83
2023/09/06 14:07:26;;;;;;;4.25;3.08;;;;;;;;;;4989353;28;20436;-82
2023/09/06 14:09:54;;;;;;;3.42;2.75;;;;;;;;;;4983484;28;20373;-83
2023/09/06 14:12:20;;;;;;;2.70;2.50;;;;;;;;;;4979510;28;20049;-81
2023/09/06 14:14:46;;;;;;;5.63;2.60;;;;;;;;;;4976319;28;20038;-81
2023/09/06 14:17:12;;;;;;;3.95;2.92;;;;;;;;;;4980215;28;20154;-83
2023/09/06 14:19:38;;;;;;;5.47;2.88;;;;;;;;;;4982430;28;20077;-81
2023/09/06 14:22:09;;;;;;;6.32;3.22;;;;;;;;;;4970667;28;20027;-80
2023/09/06 14:24:35;;;;;;;5.65;2.80;;;;;;;;;;4982801;28;20066;-80
2023/09/06 14:27:03;;;;;;;4.82;3.10;;;;;;;;;;5000068;28;20321;-80
2023/09/06 14:29:30;;;;;;;6.07;2.83;;;;;;;;;;4982188;28;20027;-79
2023/09/06 14:31:57;;;;;;;4.47;3.22;;;;;;;;;;4966187;28;20032;-83
2023/09/06 14:34:24;;;;;;;3.47;2.97;;;;;;;;;;4980661;28;20059;-84
2023/09/06 14:36:50;;;;;;;4.13;2.90;;;;;;;;;;4979920;28;20026;-82
2023/09/06 14:39:18;;;;;;;7.15;3.00;;;;;;;;;;4980349;28;20039;-80
2023/09/06 14:41:44;;;;;;;5.00;3.08;;;;;;;;;;4994283;28;20026;-79
2023/09/06 14:44:11;;;;;;;3.63;3.10;;;;;;;;;;4998989;28;20393;-79
2023/09/06 14:46:37;;;;;;;5.80;2.67;;;;;;;;;;4998336;28;20023;-79
2023/09/06 14:49:05;;;;;;;3.92;3.20;;;;;;;;;;4980246;28;20038;-79
2023/09/06 14:51:31;;;;;;;5.68;3.05;;;;;;;;;;4979389;28;20332;-79
2023/09/06 14:53:57;;;;;;;6.40;3.15;;;;;;;;;;4979922;28;20483;-79
2023/09/06 14:56:23;;;;;;;7.82;2.95;;;;;;;;;;4980090;28;20105;-80
2023/09/06 14:58:49;;;;;;;6.53;3.35;;;;;;;;;;4980037;28;20062;-79